Home > Products > Valid Products > TAF

000
FTUS46 KEKA 021345 AAA
TAFACV
TAF AMD
KACV 021345Z 0214/0312 VRB02KT 6SM BR SCT015 BKN040
     FM021700 31008KT P6SM SCT004 BKN020
     FM022100 31013KT P6SM SCT020
     FM030400 34007KT P6SM SCT015
     FM030800 04005KT P6SM SCT015 BKN035=



000
FTUS46 KEKA 021345 AAA
TAFCEC
TAF AMD
KCEC 021345Z 0214/0312 VRB02KT 6SM -RA BR BKN008 OVC015
      TEMPO 0214/0215 3SM -RA BR
     FM021700 30009KT P6SM SCT003 BKN025 OVC050
     FM022000 31011KT P6SM SCT025
     FM030300 34009KT P6SM SKC
     FM030900 03009KT P6SM SKC=



000
FTUS46 KEKA 021345 AAA
TAFACV
TAF AMD
KACV 021345Z 0214/0312 VRB02KT 6SM BR SCT015 BKN040
     FM021700 31008KT P6SM SCT004 BKN020
     FM022100 31013KT P6SM SCT020
     FM030400 34007KT P6SM SCT015
     FM030800 04005KT P6SM SCT015 BKN035=



000
FTUS46 KEKA 021345 AAA
TAFCEC
TAF AMD
KCEC 021345Z 0214/0312 VRB02KT 6SM -RA BR BKN008 OVC015
      TEMPO 0214/0215 3SM -RA BR
     FM021700 30009KT P6SM SCT003 BKN025 OVC050
     FM022000 31011KT P6SM SCT025
     FM030300 34009KT P6SM SKC
     FM030900 03009KT P6SM SKC=



000
FTUS46 KEKA 021121
TAFACV
TAF
KACV 021121Z 0212/0312 VRB02KT 6SM BR OVC030
      TEMPO 0212/0216 5SM -SHRA BR BKN012 OVC020
     FM021700 31008KT P6SM SCT004 BKN020
     FM022100 31013KT P6SM SCT020
     FM030400 34007KT P6SM SCT015
     FM030800 04005KT P6SM SCT015 BKN035=



000
FTUS46 KEKA 021121
TAFCEC
TAF
KCEC 021121Z 0212/0312 VRB02KT 6SM -RA BR OVC015
      TEMPO 0212/0215 3SM -RA BR
     FM021700 30009KT P6SM SCT003 BKN025 OVC050
     FM022000 31011KT P6SM SCT025
     FM030300 34009KT P6SM SKC
     FM030900 03009KT P6SM SKC=



000
FTUS46 KEKA 021121
TAFUKI
TAF
KUKI 021121Z 0212/0312 00000KT P6SM SKC
     FM021900 31008KT P6SM SKC
     FM030300 34005KT P6SM SCT008=



000
FTUS46 KEKA 021121
TAFACV
TAF
KACV 021121Z 0212/0312 VRB02KT 6SM BR OVC030
      TEMPO 0212/0216 5SM -SHRA BR BKN012 OVC020
     FM021700 31008KT P6SM SCT004 BKN020
     FM022100 31013KT P6SM SCT020
     FM030400 34007KT P6SM SCT015
     FM030800 04005KT P6SM SCT015 BKN035=



000
FTUS46 KEKA 021121
TAFCEC
TAF
KCEC 021121Z 0212/0312 VRB02KT 6SM -RA BR OVC015
      TEMPO 0212/0215 3SM -RA BR
     FM021700 30009KT P6SM SCT003 BKN025 OVC050
     FM022000 31011KT P6SM SCT025
     FM030300 34009KT P6SM SKC
     FM030900 03009KT P6SM SKC=



000
FTUS46 KEKA 021121
TAFUKI
TAF
KUKI 021121Z 0212/0312 00000KT P6SM SKC
     FM021900 31008KT P6SM SKC
     FM030300 34005KT P6SM SCT008=



000
FTUS46 KEKA 020542
TAFACV
TAF
KACV 020542Z 0206/0306 VRB02KT 6SM BR SCT025 OVC150
      TEMPO 0210/0214 5SM BR BKN012 OVC025
     FM021700 31008KT P6SM SCT004 BKN025
     FM022100 31015KT P6SM SCT015 BKN035
     FM030300 34007KT P6SM BKN025 OVC035=



000
FTUS46 KEKA 020542
TAFCEC
TAF
KCEC 020542Z 0206/0306 VRB02KT 6SM BR BKN035 OVC150
      TEMPO 0210/0214 5SM BR BKN015 OVC035
     FM021700 30009KT P6SM SCT003 BKN025 OVC050=



000
FTUS46 KEKA 020542
TAFACV
TAF
KACV 020542Z 0206/0306 VRB02KT 6SM BR SCT025 OVC150
      TEMPO 0210/0214 5SM BR BKN012 OVC025
     FM021700 31008KT P6SM SCT004 BKN025
     FM022100 31015KT P6SM SCT015 BKN035
     FM030300 34007KT P6SM BKN025 OVC035=



000
FTUS46 KEKA 020542
TAFUKI
TAF
KUKI 020542Z 0206/0306 VRB04KT P6SM SKC
     FM022100 34008KT P6SM SKC=



000
FTUS46 KEKA 020542
TAFUKI
TAF
KUKI 020542Z 0206/0306 VRB04KT P6SM SKC
     FM022100 34008KT P6SM SKC=



000
FTUS46 KEKA 020542
TAFCEC
TAF
KCEC 020542Z 0206/0306 VRB02KT 6SM BR BKN035 OVC150
      TEMPO 0210/0214 5SM BR BKN015 OVC035
     FM021700 30009KT P6SM SCT003 BKN025 OVC050=



000
FTUS46 KEKA 020410 AAA
TAFUKI
TAF AMD
KUKI 020410Z 0204/0224 33009KT P6SM SKC
     FM021800 VRB04KT P6SM SKC
     FM022100 34008KT P6SM SKC=



000
FTUS46 KEKA 012337
TAFUKI
TAF
KUKI 012337Z 0200/0224 30010G15KT P6SM SKC
     FM020200 36005KT P6SM SKC
     FM020400 00000KT P6SM SKC
     FM021800 VRB04KT P6SM SKC
     FM022100 34008KT P6SM SKC=



000
FTUS46 KEKA 012337
TAFACV
TAF
KACV 012337Z 0200/0224 32014KT P6SM SKC
     FM020200 33006KT P6SM SCT006 BKN250
     FM020500 VRB02KT 6SM BR SCT006 BKN015 BKN250
     FM021100 VRB02KT 5SM BR BKN004 OVC015
     FM021700 31008KT P6SM SCT004 BKN015
     FM022100 31011KT P6SM SCT015 BKN035=



000
FTUS46 KEKA 012337
TAFCEC
TAF
KCEC 012337Z 0200/0224 33008KT P6SM SCT250
     FM020200 VRB04KT 6SM BR SCT008 BKN250
     FM020600 VRB02KT 4SM BR BKN005 BKN250
      TEMPO 0208/0212 2SM BR OVC003
     FM021700 29009KT P6SM SCT003 BKN025=



000
FTUS46 KEKA 011720
TAFUKI
TAF
KUKI 011720Z 0118/0218 00000KT P6SM SKC
     FM012000 VRB03KT P6SM SKC
     FM012200 32008KT P6SM SKC
     FM020500 VRB03KT P6SM SKC
     FM020800 00000KT P6SM SKC=



000
FTUS46 KEKA 011720
TAFUKI
TAF
KUKI 011720Z 0118/0218 00000KT P6SM SKC
     FM012000 VRB03KT P6SM SKC
     FM012200 32008KT P6SM SKC
     FM020500 VRB03KT P6SM SKC
     FM020800 00000KT P6SM SKC=



000
FTUS46 KEKA 011720
TAFCEC
TAF
KCEC 011720Z 0118/0218 21008KT P6SM SKC
     FM012000 27008KT P6SM SKC
     FM012200 32008KT P6SM SCT250
     FM020200 VRB04KT 6SM BR SCT008 BKN250
     FM020600 VRB02KT 4SM BR BKN005 BKN250
      TEMPO 0208/0212 2SM BR OVC003=



000
FTUS46 KEKA 011720
TAFACV
TAF
KACV 011720Z 0118/0218 VRB06KT P6SM SKC
     FM012000 32010KT P6SM SKC
     FM020300 33006KT P6SM SCT006 BKN250
     FM020600 VRB02KT 6SM BR BKN006 BKN250=



000
FTUS46 KEKA 011720
TAFACV
TAF
KACV 011720Z 0118/0218 VRB06KT P6SM SKC
     FM012000 32010KT P6SM SKC
     FM020300 33006KT P6SM SCT006 BKN250
     FM020600 VRB02KT 6SM BR BKN006 BKN250=



000
FTUS46 KEKA 011720
TAFCEC
TAF
KCEC 011720Z 0118/0218 21008KT P6SM SKC
     FM012000 27008KT P6SM SKC
     FM012200 32008KT P6SM SCT250
     FM020200 VRB04KT 6SM BR SCT008 BKN250
     FM020600 VRB02KT 4SM BR BKN005 BKN250
      TEMPO 0208/0212 2SM BR OVC003=



000
FTUS46 KEKA 011600 CCA
TAFACV
TAF COR
KACV 011600Z 0115/0212 VRB05KT P6SM SCT250
     FM011900 31008KT P6SM FEW250
     FM012000 31011KT P6SM BKN250
     FM020300 33006KT 6SM BR SCT006 BKN250
     FM020600 VRB03KT 6SM BR BKN006 BKN250=



000
FTUS46 KEKA 011433 AAA
TAFACV
TAF AMD
KACV 011433Z 0115/0212 VRB05KT P6SM BKN010 BKN250
      TEMPO 0116/0118 4SM BR BKN004
     FM011900 31008KT P6SM SCT250
     FM012000 31011KT P6SM SCT020
     FM020300 33006KT 6SM BR SCT006 BKN250
     FM020600 VRB03KT 6SM BR BKN006 BKN250=



000
FTUS46 KEKA 011433 AAA
TAFACV
TAF AMD
KACV 011433Z 0115/0212 VRB05KT P6SM BKN010 BKN250
      TEMPO 0116/0118 4SM BR BKN004
     FM011900 31008KT P6SM SCT250
     FM012000 31011KT P6SM SCT020
     FM020300 33006KT 6SM BR SCT006 BKN250
     FM020600 VRB03KT 6SM BR BKN006 BKN250=



000
FTUS46 KEKA 011431 AAA
TAFCEC
TAF AMD
KCEC 011431Z 0115/0212 VRB05KT P6SM SCT250
     FM011900 26006KT P6SM SCT250
     FM012200 32008KT P6SM SCT010 SCT250
     FM020200 34006KT 6SM BR SCT008 BKN250
     FM020600 16004KT 4SM BR BKN005 BKN250
      TEMPO 0208/0212 2SM BR OVC003=



000
FTUS46 KEKA 011144
TAFACV
TAF
KACV 011144Z 0112/0212 VRB03KT P6SM FEW006 BKN250
     FM011400 VRB03KT 6SM BR SCT004
      TEMPO 0114/0116 4SM BR BKN004
     FM011800 31008KT 6SM HZ SCT007
     FM012000 31011KT P6SM SCT020
     FM020300 33006KT 6SM BR SCT006 BKN250
     FM020600 VRB03KT 6SM BR BKN006 BKN250=



000
FTUS46 KEKA 011144
TAFACV
TAF
KACV 011144Z 0112/0212 VRB03KT P6SM FEW006 BKN250
     FM011400 VRB03KT 6SM BR SCT004
      TEMPO 0114/0116 4SM BR BKN004
     FM011800 31008KT 6SM HZ SCT007
     FM012000 31011KT P6SM SCT020
     FM020300 33006KT 6SM BR SCT006 BKN250
     FM020600 VRB03KT 6SM BR BKN006 BKN250=



000
FTUS46 KEKA 011144
TAFUKI
TAF
KUKI 011144Z 0112/0212 00000KT P6SM SKC
     FM011800 07005KT P6SM SKC
     FM012200 32008G15KT P6SM SKC
     FM020500 VRB03KT P6SM SKC=



000
FTUS46 KEKA 011144
TAFCEC
TAF
KCEC 011144Z 0112/0212 12003KT 6SM BR FEW006 SCT250
     FM011300 VRB03KT 6SM BR SCT004 SCT250
      TEMPO 0114/0116 4SM BR BKN004
     FM011700 24006KT 6SM HZ SCT007
     FM012200 32008KT P6SM SCT010 SCT250
     FM020200 34006KT 6SM BR SCT008 BKN250
     FM020600 16004KT 4SM BR BKN005 BKN250
      TEMPO 0208/0212 2SM BR OVC003=



000
FTUS46 KEKA 011144
TAFCEC
TAF
KCEC 011144Z 0112/0212 12003KT 6SM BR FEW006 SCT250
     FM011300 VRB03KT 6SM BR SCT004 SCT250
      TEMPO 0114/0116 4SM BR BKN004
     FM011700 24006KT 6SM HZ SCT007
     FM012200 32008KT P6SM SCT010 SCT250
     FM020200 34006KT 6SM BR SCT008 BKN250
     FM020600 16004KT 4SM BR BKN005 BKN250
      TEMPO 0208/0212 2SM BR OVC003=



000
FTUS46 KEKA 011144
TAFUKI
TAF
KUKI 011144Z 0112/0212 00000KT P6SM SKC
     FM011800 07005KT P6SM SKC
     FM012200 32008G15KT P6SM SKC
     FM020500 VRB03KT P6SM SKC=



000
FTUS46 KEKA 011028 AAA
TAFACV
TAF AMD
KACV 011028Z 0110/0206 VRB03KT 6SM BR SCT006
     FM011400 34004KT 6SM BR SCT004
      TEMPO 0114/0116 4SM BR BKN004
     FM011700 30006KT 6SM HZ SCT007
     FM012000 32011KT P6SM SCT020
     FM020300 33006KT P6SM FEW004 SCT010=



000
FTUS46 KEKA 011025 AAA
TAFCEC
TAF AMD
KCEC 011025Z 0110/0206 VRB03KT 6SM BR FEW006 BKN250
     FM011300 VRB03KT 4SM BR SCT004 SCT250
      TEMPO 0114/0116 2SM BR BKN004
     FM011700 28005KT 6SM HZ SCT007
     FM012200 30009KT P6SM SCT150
     FM020200 18005KT 5SM BR FEW004 SCT009 BKN015=



000
FTUS46 KEKA 011025 AAA
TAFCEC
TAF AMD
KCEC 011025Z 0110/0206 VRB03KT 6SM BR FEW006 BKN250
     FM011300 VRB03KT 4SM BR SCT004 SCT250
      TEMPO 0114/0116 2SM BR BKN004
     FM011700 28005KT 6SM HZ SCT007
     FM012200 30009KT P6SM SCT150
     FM020200 18005KT 5SM BR FEW004 SCT009 BKN015=



000
FTUS46 KEKA 010527
TAFUKI
TAF
KUKI 010527Z 0106/0206 VRB03KT P6SM SKC
     FM012100 34012KT P6SM SKC
     FM020200 VRB03KT P6SM SKC=



000
FTUS46 KEKA 010527
TAFCEC
TAF
KCEC 010527Z 0106/0206 32006KT 6SM BR SCT004 BKN050 OVC150
     FM010800 19005KT 2SM BR OVC004
      TEMPO 0112/0116 1/2SM FG
     FM011600 35005KT 5SM BR OVC004
     FM011800 22006KT P6SM FEW009 BKN100
     FM012200 30009KT P6SM SCT150
     FM020200 18005KT 5SM BR FEW004 SCT009 BKN015=



000
FTUS46 KEKA 010527
TAFACV
TAF
KACV 010527Z 0106/0206 VRB02KT 6SM BR FEW004 SCT006
     FM010900 VRB02KT 5SM BR SCT004 BKN006
     FM011400 34004KT 2SM BR BKN004 OVC007
     FM011700 30010KT P6SM FEW004 SCT007 BKN020
     FM012000 32012KT P6SM FEW007 SCT020
     FM020300 33005KT P6SM FEW004 SCT010=



000
FTUS46 KEKA 312336
TAFCEC
TAF
KCEC 312336Z 0100/0124 32012G19KT P6SM SKC
     FM010300 33009KT 6SM BR SCT008
     FM010500 26006KT 4SM BR BKN006
     FM010800 19005KT 2SM BR OVC004
      TEMPO 0112/0114 1/2SM FG
     FM011600 35005KT 3SM BR OVC004=



000
FTUS46 KEKA 312336
TAFACV
TAF
KACV 312336Z 0100/0124 33015KT 6SM HZ SKC
     FM010300 34009G14KT 6SM BR SCT012
     FM010600 36005KT 6SM BR BKN008 BKN012
     FM011000 VRB03KT 4SM BR SCT004 OVC006
     FM011400 34004KT 2SM BR BKN004 OVC007
     FM011800 30007KT P6SM BKN007=



000
FTUS46 KEKA 312336
TAFUKI
TAF
KUKI 312336Z 0100/0124 34010G17KT P6SM SKC
     FM010200 31009KT P6SM SKC
     FM010400 00000KT P6SM SKC
     FM011800 VRB04KT P6SM SKC
     FM012100 34012KT P6SM SKC=



000
FTUS46 KEKA 312215 AAA
TAFACV
TAF AMD
KACV 312215Z 3122/0118 32012G20KT 6SM HZ SKC
     FM010300 34009G16KT 6SM BR SCT012
     FM010600 36005KT 6SM BR BKN008 BKN012
     FM011000 VRB03KT 4SM BR SCT004 OVC006
     FM011400 34004KT 2SM BR BKN004 OVC007=



000
FTUS46 KEKA 312211 AAA
TAFCEC
TAF AMD
KCEC 312211Z 3122/0118 32012G19KT P6SM SKC
     FM010300 33009KT 6SM BR SCT008
     FM010500 26006KT 4SM BR BKN006
     FM010800 19005KT 2SM BR OVC004
      TEMPO 0112/0114 1/2SM FG
     FM011600 35005KT 3SM BR OVC004=



000
FTUS46 KEKA 312211 AAA
TAFCEC
TAF AMD
KCEC 312211Z 3122/0118 32012G19KT P6SM SKC
     FM010300 33009KT 6SM BR SCT008
     FM010500 26006KT 4SM BR BKN006
     FM010800 19005KT 2SM BR OVC004
      TEMPO 0112/0114 1/2SM FG
     FM011600 35005KT 3SM BR OVC004=



000
FTUS46 KEKA 311727
TAFCEC
TAF
KCEC 311727Z 3118/0118 31009KT 6SM HZ FEW008
     FM312300 33007KT 6SM BR SCT008
     FM010200 34009G15KT 4SM BR BKN006
     FM010600 19005KT 2SM BR OVC004
      TEMPO 0112/0114 1/2SM FG
     FM011600 35005KT 3SM BR OVC004=



000
FTUS46 KEKA 311727
TAFACV
TAF
KACV 311727Z 3118/0118 30007KT 6SM HZ FEW008
     FM312000 32011KT P6SM SKC
     FM312200 32012G20KT 6SM HZ SCT012
     FM010300 34009G16KT 6SM BR BKN008 BKN012
     FM011000 VRB03KT 4SM BR SCT004 OVC006
     FM011400 34004KT 2SM BR BKN004 OVC007=



000
FTUS46 KEKA 311727
TAFUKI
TAF
KUKI 311727Z 3118/0118 01005KT P6SM SCT250
     FM312200 32010KT P6SM SKC
     FM010200 36007KT P6SM SKC
     FM010500 00000KT P6SM SKC=



000
FTUS46 KEKA 311146
TAFCEC
TAF
KCEC 311146Z 3112/0112 35003KT 2SM BR BKN006
      TEMPO 3112/3114 1SM BR BKN004
     FM311600 33006KT 4SM BR SCT007
     FM311900 31009KT 6SM HZ SCT012
     FM312300 33007KT 6SM BR SCT008
     FM010200 34009G15KT 4SM BR BKN005=



000
FTUS46 KEKA 311146
TAFUKI
TAF
KUKI 311146Z 3112/0112 00000KT P6SM FEW250
     FM311800 01005KT P6SM SCT250
     FM312200 32008KT P6SM SKC
     FM010500 00000KT P6SM SKC=



000
FTUS46 KEKA 311146
TAFACV
TAF
KACV 311146Z 3112/0112 09003KT 6SM BR SKC
      TEMPO 3112/3114 4SM BR SCT005
     FM311600 31006KT P6SM FEW008
     FM311900 32011KT P6SM SCT012
     FM312200 32012G20KT 6SM HZ SCT012
     FM010300 34009G16KT 6SM BR BKN008
     FM011000 VRB03KT 4SM BR OVC006=



000
FTUS46 KEKA 311146
TAFUKI
TAF
KUKI 311146Z 3112/0112 00000KT P6SM FEW250
     FM311800 01005KT P6SM SCT250
     FM312200 32008KT P6SM SKC
     FM010500 00000KT P6SM SKC=



000
FTUS46 KEKA 311146
TAFACV
TAF
KACV 311146Z 3112/0112 09003KT 6SM BR SKC
      TEMPO 3112/3114 4SM BR SCT005
     FM311600 31006KT P6SM FEW008
     FM311900 32011KT P6SM SCT012
     FM312200 32012G20KT 6SM HZ SCT012
     FM010300 34009G16KT 6SM BR BKN008
     FM011000 VRB03KT 4SM BR OVC006=



000
FTUS46 KEKA 311146
TAFCEC
TAF
KCEC 311146Z 3112/0112 35003KT 2SM BR BKN006
      TEMPO 3112/3114 1SM BR BKN004
     FM311600 33006KT 4SM BR SCT007
     FM311900 31009KT 6SM HZ SCT012
     FM312300 33007KT 6SM BR SCT008
     FM010200 34009G15KT 4SM BR BKN005=



000
FTUS46 KEKA 311014 AAA
TAFACV
TAF AMD
KACV 311014Z 3110/0106 VRB03KT 6SM BR SKC
     FM311300 VRB03KT 4SM BR BKN006
     FM311600 31008KT P6SM SCT008
     FM312200 32012G20KT P6SM FEW015=



000
FTUS46 KEKA 311012 AAA
TAFCEC
TAF AMD
KCEC 311012Z 3110/0106 34003KT 1/4SM FG VV004
      TEMPO 3114/3116 1SM BR
     FM311600 33006KT 4SM BR SCT007
     FM311900 31009KT 6SM HZ SCT012
     FM010000 33007KT 6SM BR SCT010=



000
FTUS46 KEKA 310527
TAFUKI
TAF
KUKI 310527Z 3106/0106 VRB03KT P6SM FEW010
     FM311800 33007KT P6SM FEW010 SCT250=



000
FTUS46 KEKA 310527
TAFACV
TAF
KACV 310527Z 3106/0106 VRB03KT 6SM BR SCT020
     FM311000 VRB03KT 4SM BR SCT004 BKN006 BKN010
     FM311700 31008KT P6SM BKN007
     FM312200 32013KT P6SM FEW018=



000
FTUS46 KEKA 310527
TAFCEC
TAF
KCEC 310527Z 3106/0106 VRB03KT 5SM BR FEW004 BKN011
     FM310900 VRB02KT 3SM BR BKN004 OVC010
     FM311700 28008KT P6SM BKN007
     FM010000 33007KT P6SM FEW011=



000
FTUS46 KEKA 310321 AAA
TAFCEC
TAF AMD
KCEC 310321Z 3103/3124 34004KT 3SM BR BKN017
     FM310600 VRB03KT 6SM BR SCT006
     FM311000 11003KT 4SM BR BKN004
     FM311700 30008KT P6SM SCT004=



000
FTUS46 KEKA 310227 AAB
TAFUKI
TAF AMD
KUKI 310227Z 3102/3124 VRB04KT P6SM SKC
     FM310800 00000KT P6SM SCT010
     FM311600 09003KT P6SM FEW010=



000
FTUS46 KEKA 310025 AAA
TAFUKI
TAF AMD
KUKI 310025Z 3100/3124 29010G17KT P6SM SKC
     FM310300 36005KT P6SM SKC
     FM310800 00000KT P6SM SCT010
     FM311600 09003KT P6SM FEW010=



000
FTUS46 KEKA 310025 AAA
TAFUKI
TAF AMD
KUKI 310025Z 3100/3124 29010G17KT P6SM SKC
     FM310300 36005KT P6SM SKC
     FM310800 00000KT P6SM SCT010
     FM311600 09003KT P6SM FEW010=



000
FTUS46 KEKA 302339
TAFUKI
TAF
KUKI 302339Z 3100/3124 32009G17KT P6SM SKC
     FM310300 36005KT P6SM SKC
     FM310800 00000KT P6SM SCT010
     FM311600 09003KT P6SM FEW010=



000
FTUS46 KEKA 302339
TAFCEC
TAF
KCEC 302339Z 3100/3124 30007KT P6SM SKC
     FM310600 VRB03KT 6SM BR SCT006
     FM311000 11003KT 4SM BR BKN004
     FM311700 30008KT P6SM SCT004=



000
FTUS46 KEKA 302339
TAFACV
TAF
KACV 302339Z 3100/3124 32008KT P6SM FEW007
     FM310600 35003KT 6SM BR SCT012
     FM311000 VRB03KT 4SM BR SCT004 BKN006 BKN010
     FM311700 31010KT P6SM FEW006=



000
FTUS46 KEKA 302005 AAA
TAFCEC
TAF AMD
KCEC 302005Z 3020/3118 19009KT P6SM BKN012 BKN025 OVC035
     FM302300 22007KT P6SM SCT012 BKN025 BKN060
     FM310100 31006KT P6SM SCT012 SCT060
     FM310600 15004KT 6SM BR SCT006
     FM311000 11003KT 4SM BR BKN004=



000
FTUS46 KEKA 301741
TAFUKI
TAF
KUKI 301741Z 3018/3118 34004KT P6SM FEW250
     FM302100 32008G14KT P6SM SKC
     FM310400 36003KT P6SM SKC
     FM310600 00000KT P6SM SCT010
     FM311600 09003KT P6SM FEW010=



000
FTUS46 KEKA 301741
TAFCEC
TAF
KCEC 301741Z 3018/3118 17010KT P6SM VCSH SCT007 BKN015 OVC030
     FM301900 19009KT P6SM SCT015 BKN025 OVC035
     FM302100 22007KT P6SM SCT020 BKN035 BKN060
     FM310100 31006KT P6SM SCT012
     FM310600 15004KT 6SM BR SCT006
     FM311000 11003KT 4SM BR BKN004=



000
FTUS46 KEKA 301741
TAFACV
TAF
KACV 301741Z 3018/3118 VRB05KT P6SM VCSH SCT025 BKN035 OVC060
     FM302000 30010KT P6SM FEW025 SCT035 BKN060
     FM310100 33009KT P6SM FEW025 SCT050
     FM310600 35003KT 6SM BR SCT012
     FM311000 VRB03KT 4SM BR SCT004 BKN006 BKN010=



000
FTUS46 KEKA 301741
TAFACV
TAF
KACV 301741Z 3018/3118 VRB05KT P6SM VCSH SCT025 BKN035 OVC060
     FM302000 30010KT P6SM FEW025 SCT035 BKN060
     FM310100 33009KT P6SM FEW025 SCT050
     FM310600 35003KT 6SM BR SCT012
     FM311000 VRB03KT 4SM BR SCT004 BKN006 BKN010=



000
FTUS46 KEKA 301741
TAFCEC
TAF
KCEC 301741Z 3018/3118 17010KT P6SM VCSH SCT007 BKN015 OVC030
     FM301900 19009KT P6SM SCT015 BKN025 OVC035
     FM302100 22007KT P6SM SCT020 BKN035 BKN060
     FM310100 31006KT P6SM SCT012
     FM310600 15004KT 6SM BR SCT006
     FM311000 11003KT 4SM BR BKN004=



000
FTUS46 KEKA 301741
TAFUKI
TAF
KUKI 301741Z 3018/3118 34004KT P6SM FEW250
     FM302100 32008G14KT P6SM SKC
     FM310400 36003KT P6SM SKC
     FM310600 00000KT P6SM SCT010
     FM311600 09003KT P6SM FEW010=



    US Dept of Commerce
    National Oceanic and Atmospheric Administration
    National Weather Service
    1325 East West Highway
    Silver Spring, MD 20910
    Page Author: NWS Internet Services Team
Disclaimer
Information Quality
Credits
Glossary
Privacy Policy
Freedom of Information Act (FOIA)
About Us
Career Opportunities